Flight Track Log - Related Links

Times and Time Zones

All times are in EDT time to prevent confusion due to time zone crossing. See the WIG449A flight status page for this flight to view local times or setup timezone preferences in your user account.

Time Position Orientation Groundspeed Altitude Reporting Facility
EDT Latitude Longitude Course Direction KTS MPH feet Rate Location/Type
Wed 05:47:10 PM 42.7589 -73.8058 359° North 85 98 1,000  Level Boston Center
Wed 05:47:40 PM 42.7714 -73.8061 359° North 93 107 1,500 990 Climbing Boston Center
Wed 05:48:47 PM 42.8050 -73.8014 North 117 135 2,600 1,031 Climbing Boston Center
Wed 05:49:48 PM 42.8383 -73.7992 North 121 139 3,700 1,041 Climbing Boston Center
Wed 05:50:48 PM 42.8739 -73.7886 12° North 125 144 4,700 992 Climbing Boston Center
Wed 05:51:49 PM 42.9094 -73.7836 North 128 147 5,700 938 Climbing Boston Center
Wed 05:52:56 PM 42.9447 -73.7761 North 122 140 6,700 614 Climbing Boston Center
Wed 05:53:56 PM 42.9783 -73.7711 North 123 142 7,000 149 Climbing Boston Center
Wed 05:54:57 PM 43.0242 -73.7606 10° North 145 167 7,000  Level Boston Center
Wed 05:55:58 PM 43.0639 -73.7531 North 153 176 7,000  Level Boston Center
Wed 05:56:58 PM 43.1056 -73.7511 North 150 173 7,000  Level Boston Center
Wed 05:58:05 PM 43.1494 -73.7406 10° North 149 171 7,000  Level Boston Center
Wed 05:59:06 PM 43.1933 -73.7331 North 151 174 7,000  Level Boston Center
Wed 06:00:06 PM 43.2331 -73.7225 11° North 153 176 7,000  Level Boston Center
Wed 06:01:06 PM 43.2728 -73.7175 North 153 176 7,000  Level Boston Center
Wed 06:02:06 PM 43.3144 -73.7100 North 153 176 7,000  Level Boston Center
Wed 06:03:06 PM 43.3500 -73.7019 North 148 170 7,000  Level Boston Center
Wed 06:04:06 PM 43.3958 -73.6944 North 148 170 7,000  Level Boston Center
Wed 06:05:06 PM 43.4397 -73.6839 10° North 148 170 7,000  Level Boston Center
Wed 06:06:06 PM 43.4817 -73.6792 North 148 170 7,000  Level Boston Center
Wed 06:07:06 PM 43.5233 -73.6714 North 148 170 7,000  Level Boston Center
Wed 06:08:06 PM 43.5672 -73.6636 North 153 176 7,000  Level Boston Center
Wed 06:09:06 PM 43.6089 -73.6558 North 153 176 7,000  Level Boston Center
Wed 06:10:06 PM 43.6506 -73.6481 North 153 176 7,000  Level Boston Center
Wed 06:11:06 PM 43.6967 -73.6461 North 153 176 7,000 50 Level Boston Center
Wed 06:12:06 PM 43.7364 -73.6356 11° North 143 165 7,100 50 Climbing Boston Center
Wed 06:13:06 PM 43.7758 -73.6275 North 143 165 7,100  Level Boston Center
Wed 06:14:06 PM 43.8178 -73.6197 North 143 165 7,100  Level Boston Center
Wed 06:15:06 PM 43.8594 -73.6119 North 148 170 7,100  Level Boston Center
Wed 06:16:06 PM 43.9033 -73.6042 North 148 170 7,100 -50 Level Boston Center
Wed 06:17:06 PM 43.9431 -73.5964 North 148 170 7,000  Descending Boston Center
Wed 06:18:06 PM 43.9889 -73.5886 North 148 170 7,100 50 Climbing Boston Center
Wed 06:19:06 PM 44.0306 -73.5808 North 148 170 7,100  Level Boston Center
Wed 06:20:18 PM 44.0744 -73.5728 North 148 170 7,100  Level Boston Center
Wed 06:21:18 PM 44.1203 -73.5650 North 148 170 7,100 -50 Level Boston Center
Wed 06:22:18 PM 44.1642 -73.5572 North 148 170 7,000  Descending Boston Center
Wed 06:23:18 PM 44.2061 -73.5492 North 153 176 7,100 -150 Climbing Boston Center
Wed 06:24:18 PM 44.2561 -73.5386 North 158 182 6,700 -550 Descending Boston Center
Wed 06:25:18 PM 44.3019 -73.5308 North 166 191 6,000 -650 Descending Boston Center
Wed 06:26:18 PM 44.3378 -73.5025 29° Northeast 148 170 5,400 -600 Descending Boston Center
Wed 06:28:00 PM 44.4076 -73.5003 North  Level FlightAware Approximate

Login

Don't have an account? Register now (free) for customized features, flight alerts, and more!